sensor_id;sensor_type;location;lat;lon;timestamp;P1;durP1;ratioP1;P2;durP2;ratioP2
25581;SDS011;13462;50.764;4.332;2023-06-14T00:01:31;11.52;;;8.30;;
25581;SDS011;13462;50.764;4.332;2023-06-14T00:03:59;10.02;;;8.27;;
25581;SDS011;13462;50.764;4.332;2023-06-14T00:06:26;9.93;;;7.85;;
25581;SDS011;13462;50.764;4.332;2023-06-14T00:08:53;15.23;;;8.85;;
25581;SDS011;13462;50.764;4.332;2023-06-14T00:11:19;12.02;;;8.52;;
25581;SDS011;13462;50.764;4.332;2023-06-14T00:13:45;14.18;;;8.40;;
25581;SDS011;13462;50.764;4.332;2023-06-14T00:16:11;9.80;;;8.52;;
25581;SDS011;13462;50.764;4.332;2023-06-14T00:18:37;9.52;;;8.50;;
25581;SDS011;13462;50.764;4.332;2023-06-14T00:21:03;17.67;;;8.60;;
25581;SDS011;13462;50.764;4.332;2023-06-14T00:23:29;13.75;;;8.20;;
25581;SDS011;13462;50.764;4.332;2023-06-14T00:25:55;13.15;;;8.07;;
25581;SDS011;13462;50.764;4.332;2023-06-14T00:28:21;11.63;;;8.48;;
25581;SDS011;13462;50.764;4.332;2023-06-14T00:30:46;10.27;;;8.60;;
25581;SDS011;13462;50.764;4.332;2023-06-14T00:33:12;10.38;;;8.70;;
25581;SDS011;13462;50.764;4.332;2023-06-14T00:35:38;15.38;;;9.05;;
25581;SDS011;13462;50.764;4.332;2023-06-14T00:38:04;10.15;;;8.57;;
25581;SDS011;13462;50.764;4.332;2023-06-14T00:40:29;9.52;;;8.57;;
25581;SDS011;13462;50.764;4.332;2023-06-14T00:42:55;11.75;;;8.50;;
25581;SDS011;13462;50.764;4.332;2023-06-14T00:45:21;10.35;;;8.68;;
25581;SDS011;13462;50.764;4.332;2023-06-14T00:47:46;9.07;;;8.18;;
25581;SDS011;13462;50.764;4.332;2023-06-14T00:50:16;10.35;;;9.10;;
25581;SDS011;13462;50.764;4.332;2023-06-14T00:52:41;10.48;;;8.55;;
25581;SDS011;13462;50.764;4.332;2023-06-14T00:55:07;12.13;;;8.80;;
25581;SDS011;13462;50.764;4.332;2023-06-14T00:57:33;12.23;;;8.85;;
25581;SDS011;13462;50.764;4.332;2023-06-14T01:00:02;14.65;;;8.70;;
25581;SDS011;13462;50.764;4.332;2023-06-14T01:02:29;9.57;;;8.57;;
25581;SDS011;13462;50.764;4.332;2023-06-14T01:04:55;12.20;;;8.02;;
25581;SDS011;13462;50.764;4.332;2023-06-14T01:10:37;13.55;;;8.65;;
25581;SDS011;13462;50.764;4.332;2023-06-14T01:15:27;13.38;;;8.98;;
25581;SDS011;13462;50.764;4.332;2023-06-14T01:17:56;12.27;;;8.75;;
25581;SDS011;13462;50.764;4.332;2023-06-14T01:20:28;12.57;;;9.05;;
25581;SDS011;13462;50.764;4.332;2023-06-14T01:22:57;9.73;;;8.73;;
25581;SDS011;13462;50.764;4.332;2023-06-14T01:25:24;11.05;;;9.13;;
25581;SDS011;13462;50.764;4.332;2023-06-14T01:27:51;13.23;;;8.90;;
25581;SDS011;13462;50.764;4.332;2023-06-14T01:30:18;13.45;;;10.00;;
25581;SDS011;13462;50.764;4.332;2023-06-14T01:32:46;11.32;;;9.05;;
25581;SDS011;13462;50.764;4.332;2023-06-14T01:35:13;12.05;;;9.10;;
25581;SDS011;13462;50.764;4.332;2023-06-14T01:37:39;14.55;;;9.68;;
25581;SDS011;13462;50.764;4.332;2023-06-14T01:40:07;10.50;;;9.40;;
25581;SDS011;13462;50.764;4.332;2023-06-14T01:42:35;9.52;;;8.50;;
25581;SDS011;13462;50.764;4.332;2023-06-14T01:45:03;11.05;;;9.10;;
25581;SDS011;13462;50.764;4.332;2023-06-14T01:47:31;13.35;;;9.07;;
25581;SDS011;13462;50.764;4.332;2023-06-14T01:49:57;11.55;;;8.93;;
25581;SDS011;13462;50.764;4.332;2023-06-14T01:52:23;12.73;;;9.48;;
25581;SDS011;13462;50.764;4.332;2023-06-14T01:54:49;12.45;;;8.93;;
25581;SDS011;13462;50.764;4.332;2023-06-14T01:57:15;10.73;;;8.82;;
25581;SDS011;13462;50.764;4.332;2023-06-14T01:59:41;11.93;;;9.15;;
25581;SDS011;13462;50.764;4.332;2023-06-14T02:02:06;12.65;;;9.25;;
25581;SDS011;13462;50.764;4.332;2023-06-14T02:04:32;21.25;;;9.73;;
25581;SDS011;13462;50.764;4.332;2023-06-14T02:06:59;11.90;;;9.43;;
25581;SDS011;13462;50.764;4.332;2023-06-14T02:09:24;12.43;;;9.63;;
25581;SDS011;13462;50.764;4.332;2023-06-14T02:11:50;14.07;;;10.43;;
25581;SDS011;13462;50.764;4.332;2023-06-14T02:14:15;10.63;;;9.52;;
25581;SDS011;13462;50.764;4.332;2023-06-14T02:16:42;14.60;;;11.05;;
25581;SDS011;13462;50.764;4.332;2023-06-14T02:21:42;10.95;;;9.77;;
25581;SDS011;13462;50.764;4.332;2023-06-14T02:24:08;14.70;;;10.20;;
25581;SDS011;13462;50.764;4.332;2023-06-14T02:26:33;15.32;;;10.77;;
25581;SDS011;13462;50.764;4.332;2023-06-14T02:28:59;11.52;;;10.32;;
25581;SDS011;13462;50.764;4.332;2023-06-14T02:31:25;14.43;;;10.95;;
25581;SDS011;13462;50.764;4.332;2023-06-14T02:33:52;13.73;;;11.07;;
25581;SDS011;13462;50.764;4.332;2023-06-14T02:36:17;15.90;;;10.55;;
25581;SDS011;13462;50.764;4.332;2023-06-14T02:38:43;11.80;;;10.52;;
25581;SDS011;13462;50.764;4.332;2023-06-14T02:41:09;13.05;;;10.38;;
25581;SDS011;13462;50.764;4.332;2023-06-14T02:43:34;11.95;;;10.32;;
25581;SDS011;13462;50.764;4.332;2023-06-14T02:46:01;13.45;;;9.95;;
25581;SDS011;13462;50.764;4.332;2023-06-14T02:48:27;14.00;;;9.82;;
25581;SDS011;13462;50.764;4.332;2023-06-14T02:50:53;12.25;;;10.55;;
25581;SDS011;13462;50.764;4.332;2023-06-14T02:53:18;14.32;;;10.38;;
25581;SDS011;13462;50.764;4.332;2023-06-14T02:55:44;16.50;;;11.20;;
25581;SDS011;13462;50.764;4.332;2023-06-14T02:58:11;14.25;;;10.68;;
25581;SDS011;13462;50.764;4.332;2023-06-14T03:00:38;13.55;;;10.13;;
25581;SDS011;13462;50.764;4.332;2023-06-14T03:03:03;15.35;;;10.52;;
25581;SDS011;13462;50.764;4.332;2023-06-14T03:05:29;17.35;;;10.35;;
25581;SDS011;13462;50.764;4.332;2023-06-14T03:07:55;13.40;;;10.50;;
25581;SDS011;13462;50.764;4.332;2023-06-14T03:10:22;13.25;;;11.30;;
25581;SDS011;13462;50.764;4.332;2023-06-14T03:12:47;14.07;;;10.60;;
25581;SDS011;13462;50.764;4.332;2023-06-14T03:15:13;14.57;;;11.40;;
25581;SDS011;13462;50.764;4.332;2023-06-14T03:17:38;12.77;;;10.38;;
25581;SDS011;13462;50.764;4.332;2023-06-14T03:20:04;17.40;;;11.25;;
25581;SDS011;13462;50.764;4.332;2023-06-14T03:22:30;14.77;;;10.93;;
25581;SDS011;13462;50.764;4.332;2023-06-14T03:24:59;17.55;;;11.50;;
25581;SDS011;13462;50.764;4.332;2023-06-14T03:27:25;15.18;;;11.60;;
25581;SDS011;13462;50.764;4.332;2023-06-14T03:29:53;14.80;;;11.27;;
25581;SDS011;13462;50.764;4.332;2023-06-14T03:32:19;13.50;;;11.55;;
25581;SDS011;13462;50.764;4.332;2023-06-14T03:34:44;17.08;;;10.80;;
25581;SDS011;13462;50.764;4.332;2023-06-14T03:37:10;15.73;;;11.38;;
25581;SDS011;13462;50.764;4.332;2023-06-14T03:39:36;15.43;;;10.98;;
25581;SDS011;13462;50.764;4.332;2023-06-14T03:42:01;14.68;;;11.73;;
25581;SDS011;13462;50.764;4.332;2023-06-14T03:44:27;13.93;;;11.40;;
25581;SDS011;13462;50.764;4.332;2023-06-14T03:46:53;13.18;;;11.80;;
25581;SDS011;13462;50.764;4.332;2023-06-14T03:49:18;15.43;;;11.18;;
25581;SDS011;13462;50.764;4.332;2023-06-14T03:51:44;12.38;;;11.18;;
25581;SDS011;13462;50.764;4.332;2023-06-14T03:54:10;16.42;;;12.13;;
25581;SDS011;13462;50.764;4.332;2023-06-14T03:56:36;12.98;;;11.20;;
25581;SDS011;13462;50.764;4.332;2023-06-14T03:59:01;13.10;;;11.70;;
25581;SDS011;13462;50.764;4.332;2023-06-14T04:01:27;14.25;;;11.98;;
25581;SDS011;13462;50.764;4.332;2023-06-14T04:03:57;13.32;;;11.93;;
25581;SDS011;13462;50.764;4.332;2023-06-14T04:06:23;12.63;;;11.15;;
25581;SDS011;13462;50.764;4.332;2023-06-14T04:08:50;19.48;;;12.52;;
25581;SDS011;13462;50.764;4.332;2023-06-14T04:11:17;14.68;;;12.63;;
25581;SDS011;13462;50.764;4.332;2023-06-14T04:13:44;16.20;;;12.98;;
25581;SDS011;13462;50.764;4.332;2023-06-14T04:16:09;15.18;;;11.93;;
25581;SDS011;13462;50.764;4.332;2023-06-14T04:18:35;16.05;;;12.77;;
25581;SDS011;13462;50.764;4.332;2023-06-14T04:21:00;13.25;;;11.32;;
25581;SDS011;13462;50.764;4.332;2023-06-14T04:23:26;13.27;;;11.85;;
25581;SDS011;13462;50.764;4.332;2023-06-14T04:25:53;17.48;;;12.55;;
25581;SDS011;13462;50.764;4.332;2023-06-14T04:28:18;15.82;;;11.38;;
25581;SDS011;13462;50.764;4.332;2023-06-14T04:30:44;14.60;;;11.95;;
25581;SDS011;13462;50.764;4.332;2023-06-14T04:33:12;17.30;;;11.65;;
25581;SDS011;13462;50.764;4.332;2023-06-14T04:35:38;14.32;;;11.75;;
25581;SDS011;13462;50.764;4.332;2023-06-14T04:38:05;13.32;;;11.38;;
25581;SDS011;13462;50.764;4.332;2023-06-14T04:40:34;15.23;;;11.85;;
25581;SDS011;13462;50.764;4.332;2023-06-14T04:43:10;13.98;;;11.70;;
25581;SDS011;13462;50.764;4.332;2023-06-14T04:45:42;15.93;;;11.73;;
25581;SDS011;13462;50.764;4.332;2023-06-14T04:48:10;14.35;;;11.00;;
25581;SDS011;13462;50.764;4.332;2023-06-14T04:50:37;13.23;;;11.32;;
25581;SDS011;13462;50.764;4.332;2023-06-14T04:53:02;17.60;;;11.90;;
25581;SDS011;13462;50.764;4.332;2023-06-14T04:55:28;17.23;;;12.15;;
25581;SDS011;13462;50.764;4.332;2023-06-14T04:57:53;14.82;;;11.50;;
25581;SDS011;13462;50.764;4.332;2023-06-14T05:00:20;13.73;;;11.55;;
25581;SDS011;13462;50.764;4.332;2023-06-14T05:02:45;15.48;;;11.25;;
25581;SDS011;13462;50.764;4.332;2023-06-14T05:05:12;15.98;;;11.23;;
25581;SDS011;13462;50.764;4.332;2023-06-14T05:07:38;14.38;;;12.38;;
25581;SDS011;13462;50.764;4.332;2023-06-14T05:10:03;20.27;;;11.40;;
25581;SDS011;13462;50.764;4.332;2023-06-14T05:12:30;16.73;;;11.95;;
25581;SDS011;13462;50.764;4.332;2023-06-14T05:14:55;12.95;;;11.55;;
25581;SDS011;13462;50.764;4.332;2023-06-14T05:17:23;15.20;;;11.50;;
25581;SDS011;13462;50.764;4.332;2023-06-14T05:19:49;12.73;;;11.02;;
25581;SDS011;13462;50.764;4.332;2023-06-14T05:22:14;12.18;;;10.90;;
25581;SDS011;13462;50.764;4.332;2023-06-14T05:24:40;13.32;;;11.18;;
25581;SDS011;13462;50.764;4.332;2023-06-14T05:27:07;16.05;;;12.13;;
25581;SDS011;13462;50.764;4.332;2023-06-14T05:29:33;14.85;;;11.45;;
25581;SDS011;13462;50.764;4.332;2023-06-14T05:31:58;20.75;;;12.23;;
25581;SDS011;13462;50.764;4.332;2023-06-14T05:34:24;15.32;;;11.02;;
25581;SDS011;13462;50.764;4.332;2023-06-14T05:36:49;14.48;;;11.88;;
25581;SDS011;13462;50.764;4.332;2023-06-14T05:39:15;15.45;;;11.68;;
25581;SDS011;13462;50.764;4.332;2023-06-14T05:41:42;14.98;;;11.15;;
25581;SDS011;13462;50.764;4.332;2023-06-14T05:44:09;15.75;;;11.10;;
25581;SDS011;13462;50.764;4.332;2023-06-14T05:46:34;15.15;;;11.50;;
25581;SDS011;13462;50.764;4.332;2023-06-14T05:49:00;13.70;;;12.18;;
25581;SDS011;13462;50.764;4.332;2023-06-14T05:51:25;13.90;;;10.05;;
25581;SDS011;13462;50.764;4.332;2023-06-14T05:53:51;13.65;;;10.68;;
25581;SDS011;13462;50.764;4.332;2023-06-14T05:56:17;16.65;;;10.00;;
25581;SDS011;13462;50.764;4.332;2023-06-14T05:58:43;11.07;;;9.63;;
25581;SDS011;13462;50.764;4.332;2023-06-14T06:01:10;11.77;;;10.13;;
25581;SDS011;13462;50.764;4.332;2023-06-14T06:03:36;11.55;;;9.15;;
25581;SDS011;13462;50.764;4.332;2023-06-14T06:06:02;13.32;;;9.98;;
25581;SDS011;13462;50.764;4.332;2023-06-14T06:08:28;22.77;;;10.45;;
25581;SDS011;13462;50.764;4.332;2023-06-14T06:10:54;11.90;;;9.63;;
25581;SDS011;13462;50.764;4.332;2023-06-14T06:13:20;15.85;;;9.85;;
25581;SDS011;13462;50.764;4.332;2023-06-14T06:15:46;13.88;;;10.35;;
25581;SDS011;13462;50.764;4.332;2023-06-14T06:18:11;11.77;;;9.50;;
25581;SDS011;13462;50.764;4.332;2023-06-14T06:20:37;12.18;;;9.68;;
25581;SDS011;13462;50.764;4.332;2023-06-14T06:23:02;15.38;;;9.73;;
25581;SDS011;13462;50.764;4.332;2023-06-14T06:25:28;10.57;;;9.10;;
25581;SDS011;13462;50.764;4.332;2023-06-14T06:27:56;11.23;;;9.65;;
25581;SDS011;13462;50.764;4.332;2023-06-14T06:30:22;13.82;;;10.13;;
25581;SDS011;13462;50.764;4.332;2023-06-14T06:32:49;12.30;;;9.48;;
25581;SDS011;13462;50.764;4.332;2023-06-14T06:35:15;12.57;;;9.88;;
25581;SDS011;13462;50.764;4.332;2023-06-14T06:37:42;15.18;;;9.57;;
25581;SDS011;13462;50.764;4.332;2023-06-14T06:40:08;10.52;;;9.38;;
25581;SDS011;13462;50.764;4.332;2023-06-14T06:42:34;11.32;;;9.35;;
25581;SDS011;13462;50.764;4.332;2023-06-14T06:45:00;10.32;;;8.32;;
25581;SDS011;13462;50.764;4.332;2023-06-14T06:47:26;11.93;;;9.50;;
25581;SDS011;13462;50.764;4.332;2023-06-14T06:49:52;10.57;;;8.05;;
25581;SDS011;13462;50.764;4.332;2023-06-14T06:52:18;11.32;;;8.75;;
25581;SDS011;13462;50.764;4.332;2023-06-14T06:54:43;12.27;;;8.80;;
25581;SDS011;13462;50.764;4.332;2023-06-14T06:57:09;9.48;;;8.23;;
25581;SDS011;13462;50.764;4.332;2023-06-14T06:59:35;11.00;;;8.98;;
25581;SDS011;13462;50.764;4.332;2023-06-14T07:02:01;10.25;;;8.77;;
25581;SDS011;13462;50.764;4.332;2023-06-14T07:04:27;8.60;;;7.88;;
25581;SDS011;13462;50.764;4.332;2023-06-14T07:06:53;9.13;;;8.20;;
25581;SDS011;13462;50.764;4.332;2023-06-14T07:09:18;10.43;;;8.77;;
25581;SDS011;13462;50.764;4.332;2023-06-14T07:11:45;9.20;;;8.35;;
25581;SDS011;13462;50.764;4.332;2023-06-14T07:14:11;12.30;;;9.63;;
25581;SDS011;13462;50.764;4.332;2023-06-14T07:16:37;11.65;;;7.90;;
25581;SDS011;13462;50.764;4.332;2023-06-14T07:19:03;9.15;;;8.25;;
25581;SDS011;13462;50.764;4.332;2023-06-14T07:21:29;9.93;;;8.27;;
25581;SDS011;13462;50.764;4.332;2023-06-14T07:23:55;10.65;;;8.65;;
25581;SDS011;13462;50.764;4.332;2023-06-14T07:26:21;12.57;;;8.65;;
25581;SDS011;13462;50.764;4.332;2023-06-14T07:28:47;12.40;;;7.90;;
25581;SDS011;13462;50.764;4.332;2023-06-14T07:31:13;10.32;;;8.07;;
25581;SDS011;13462;50.764;4.332;2023-06-14T07:33:44;9.98;;;8.13;;
25581;SDS011;13462;50.764;4.332;2023-06-14T07:36:09;10.13;;;8.23;;
25581;SDS011;13462;50.764;4.332;2023-06-14T07:38:35;11.90;;;7.90;;
25581;SDS011;13462;50.764;4.332;2023-06-14T07:41:01;8.38;;;7.43;;
25581;SDS011;13462;50.764;4.332;2023-06-14T07:43:27;9.10;;;7.63;;
25581;SDS011;13462;50.764;4.332;2023-06-14T07:45:53;9.23;;;7.75;;
25581;SDS011;13462;50.764;4.332;2023-06-14T07:48:18;9.50;;;7.07;;
25581;SDS011;13462;50.764;4.332;2023-06-14T07:50:44;13.98;;;7.22;;
25581;SDS011;13462;50.764;4.332;2023-06-14T07:53:10;8.15;;;7.45;;
25581;SDS011;13462;50.764;4.332;2023-06-14T07:55:35;11.00;;;7.10;;
25581;SDS011;13462;50.764;4.332;2023-06-14T07:58:05;8.77;;;7.10;;
25581;SDS011;13462;50.764;4.332;2023-06-14T08:00:31;9.07;;;7.90;;
25581;SDS011;13462;50.764;4.332;2023-06-14T08:02:57;7.65;;;6.88;;
25581;SDS011;13462;50.764;4.332;2023-06-14T08:05:24;8.60;;;7.20;;
25581;SDS011;13462;50.764;4.332;2023-06-14T08:07:53;9.68;;;7.57;;
25581;SDS011;13462;50.764;4.332;2023-06-14T08:10:19;7.90;;;7.13;;
25581;SDS011;13462;50.764;4.332;2023-06-14T08:12:45;8.50;;;7.63;;
25581;SDS011;13462;50.764;4.332;2023-06-14T08:15:11;11.90;;;7.55;;
25581;SDS011;13462;50.764;4.332;2023-06-14T08:17:37;9.57;;;7.95;;
25581;SDS011;13462;50.764;4.332;2023-06-14T08:20:02;8.93;;;6.95;;
25581;SDS011;13462;50.764;4.332;2023-06-14T08:22:31;7.97;;;6.90;;
25581;SDS011;13462;50.764;4.332;2023-06-14T08:25:01;8.05;;;7.25;;
25581;SDS011;13462;50.764;4.332;2023-06-14T08:27:26;9.02;;;7.18;;
25581;SDS011;13462;50.764;4.332;2023-06-14T08:29:52;8.85;;;6.97;;
25581;SDS011;13462;50.764;4.332;2023-06-14T08:32:18;8.10;;;6.60;;
25581;SDS011;13462;50.764;4.332;2023-06-14T08:34:44;9.75;;;7.32;;
25581;SDS011;13462;50.764;4.332;2023-06-14T08:37:09;10.75;;;7.20;;
25581;SDS011;13462;50.764;4.332;2023-06-14T08:39:35;7.53;;;6.70;;
25581;SDS011;13462;50.764;4.332;2023-06-14T08:42:02;10.02;;;7.57;;
25581;SDS011;13462;50.764;4.332;2023-06-14T08:44:29;8.85;;;6.75;;
25581;SDS011;13462;50.764;4.332;2023-06-14T08:46:55;8.77;;;6.70;;
25581;SDS011;13462;50.764;4.332;2023-06-14T08:49:24;7.53;;;6.80;;
25581;SDS011;13462;50.764;4.332;2023-06-14T08:51:56;9.98;;;6.35;;
25581;SDS011;13462;50.764;4.332;2023-06-14T08:54:23;8.88;;;6.40;;
25581;SDS011;13462;50.764;4.332;2023-06-14T08:56:53;7.80;;;6.75;;
25581;SDS011;13462;50.764;4.332;2023-06-14T08:59:23;9.80;;;7.13;;
25581;SDS011;13462;50.764;4.332;2023-06-14T09:01:52;9.23;;;7.50;;
25581;SDS011;13462;50.764;4.332;2023-06-14T09:04:19;9.10;;;7.28;;
25581;SDS011;13462;50.764;4.332;2023-06-14T09:06:53;8.00;;;6.80;;
25581;SDS011;13462;50.764;4.332;2023-06-14T09:09:20;7.43;;;6.72;;
25581;SDS011;13462;50.764;4.332;2023-06-14T09:11:46;11.43;;;7.72;;
25581;SDS011;13462;50.764;4.332;2023-06-14T09:14:12;8.60;;;7.03;;
25581;SDS011;13462;50.764;4.332;2023-06-14T09:16:38;12.07;;;7.13;;
25581;SDS011;13462;50.764;4.332;2023-06-14T09:19:03;12.30;;;7.00;;
25581;SDS011;13462;50.764;4.332;2023-06-14T09:21:29;10.32;;;7.35;;
25581;SDS011;13462;50.764;4.332;2023-06-14T09:24:01;8.57;;;7.47;;
25581;SDS011;13462;50.764;4.332;2023-06-14T09:26:27;8.60;;;6.82;;
25581;SDS011;13462;50.764;4.332;2023-06-14T09:28:52;7.93;;;7.20;;
25581;SDS011;13462;50.764;4.332;2023-06-14T09:31:18;11.05;;;7.68;;
25581;SDS011;13462;50.764;4.332;2023-06-14T09:33:45;8.13;;;7.28;;
25581;SDS011;13462;50.764;4.332;2023-06-14T09:36:16;7.95;;;7.15;;
25581;SDS011;13462;50.764;4.332;2023-06-14T09:38:56;9.15;;;8.02;;
25581;SDS011;13462;50.764;4.332;2023-06-14T09:41:36;8.80;;;7.43;;
25581;SDS011;13462;50.764;4.332;2023-06-14T09:44:04;8.00;;;7.20;;
25581;SDS011;13462;50.764;4.332;2023-06-14T09:46:31;10.63;;;7.55;;
25581;SDS011;13462;50.764;4.332;2023-06-14T09:48:58;7.63;;;6.85;;
25581;SDS011;13462;50.764;4.332;2023-06-14T09:51:24;11.25;;;7.93;;
25581;SDS011;13462;50.764;4.332;2023-06-14T09:53:51;8.07;;;7.30;;
25581;SDS011;13462;50.764;4.332;2023-06-14T09:56:18;8.70;;;7.90;;
25581;SDS011;13462;50.764;4.332;2023-06-14T09:58:55;10.75;;;8.38;;
25581;SDS011;13462;50.764;4.332;2023-06-14T10:01:25;10.82;;;7.35;;
25581;SDS011;13462;50.764;4.332;2023-06-14T10:03:55;10.43;;;7.32;;
25581;SDS011;13462;50.764;4.332;2023-06-14T10:06:26;9.07;;;7.35;;
25581;SDS011;13462;50.764;4.332;2023-06-14T10:08:56;8.38;;;7.68;;
25581;SDS011;13462;50.764;4.332;2023-06-14T10:11:24;9.55;;;7.00;;
25581;SDS011;13462;50.764;4.332;2023-06-14T10:13:57;9.20;;;7.82;;
25581;SDS011;13462;50.764;4.332;2023-06-14T10:24:12;8.30;;;7.45;;
25581;SDS011;13462;50.764;4.332;2023-06-14T10:26:50;11.57;;;7.72;;
25581;SDS011;13462;50.764;4.332;2023-06-14T10:29:17;12.13;;;7.32;;
25581;SDS011;13462;50.764;4.332;2023-06-14T10:31:43;7.43;;;6.65;;
25581;SDS011;13462;50.764;4.332;2023-06-14T10:34:11;10.32;;;7.25;;
25581;SDS011;13462;50.764;4.332;2023-06-14T10:36:38;8.23;;;6.88;;
25581;SDS011;13462;50.764;4.332;2023-06-14T10:39:07;12.93;;;7.72;;
25581;SDS011;13462;50.764;4.332;2023-06-14T10:41:41;9.82;;;7.10;;
25581;SDS011;13462;50.764;4.332;2023-06-14T10:46:38;7.95;;;5.78;;
25581;SDS011;13462;50.764;4.332;2023-06-14T10:49:16;6.78;;;6.18;;
25581;SDS011;13462;50.764;4.332;2023-06-14T10:51:44;9.25;;;6.18;;
25581;SDS011;13462;50.764;4.332;2023-06-14T10:54:14;6.95;;;6.25;;
25581;SDS011;13462;50.764;4.332;2023-06-14T10:56:47;9.93;;;6.78;;
25581;SDS011;13462;50.764;4.332;2023-06-14T10:59:17;8.65;;;6.93;;
25581;SDS011;13462;50.764;4.332;2023-06-14T11:04:49;7.95;;;6.68;;
25581;SDS011;13462;50.764;4.332;2023-06-14T11:12:32;7.18;;;6.30;;
25581;SDS011;13462;50.764;4.332;2023-06-14T11:15:00;7.03;;;6.32;;
25581;SDS011;13462;50.764;4.332;2023-06-14T11:17:26;6.65;;;6.03;;
25581;SDS011;13462;50.764;4.332;2023-06-14T11:20:07;10.52;;;6.32;;
25581;SDS011;13462;50.764;4.332;2023-06-14T11:22:42;8.00;;;6.40;;
25581;SDS011;13462;50.764;4.332;2023-06-14T11:25:08;8.93;;;6.05;;
25581;SDS011;13462;50.764;4.332;2023-06-14T11:27:35;9.32;;;6.68;;
25581;SDS011;13462;50.764;4.332;2023-06-14T11:30:00;7.65;;;6.30;;
25581;SDS011;13462;50.764;4.332;2023-06-14T11:32:26;7.60;;;6.15;;
25581;SDS011;13462;50.764;4.332;2023-06-14T11:34:52;8.40;;;5.95;;
25581;SDS011;13462;50.764;4.332;2023-06-14T11:37:18;8.50;;;6.25;;
25581;SDS011;13462;50.764;4.332;2023-06-14T11:39:44;9.30;;;6.47;;
25581;SDS011;13462;50.764;4.332;2023-06-14T11:42:13;7.25;;;6.55;;
25581;SDS011;13462;50.764;4.332;2023-06-14T11:44:40;8.13;;;5.88;;
25581;SDS011;13462;50.764;4.332;2023-06-14T11:47:06;9.50;;;7.00;;
25581;SDS011;13462;50.764;4.332;2023-06-14T11:49:35;9.40;;;6.15;;
25581;SDS011;13462;50.764;4.332;2023-06-14T11:52:01;6.93;;;6.25;;
25581;SDS011;13462;50.764;4.332;2023-06-14T11:54:27;7.40;;;6.18;;
25581;SDS011;13462;50.764;4.332;2023-06-14T11:56:53;8.57;;;6.25;;
25581;SDS011;13462;50.764;4.332;2023-06-14T11:59:18;7.47;;;6.05;;
25581;SDS011;13462;50.764;4.332;2023-06-14T12:01:47;8.48;;;5.97;;
25581;SDS011;13462;50.764;4.332;2023-06-14T12:04:12;6.03;;;5.43;;
25581;SDS011;13462;50.764;4.332;2023-06-14T12:06:38;9.65;;;5.88;;
25581;SDS011;13462;50.764;4.332;2023-06-14T12:09:04;10.48;;;6.03;;
25581;SDS011;13462;50.764;4.332;2023-06-14T12:11:38;7.05;;;6.30;;
25581;SDS011;13462;50.764;4.332;2023-06-14T12:14:04;9.13;;;6.47;;
25581;SDS011;13462;50.764;4.332;2023-06-14T12:16:33;8.57;;;5.95;;
25581;SDS011;13462;50.764;4.332;2023-06-14T12:19:13;9.20;;;6.18;;
25581;SDS011;13462;50.764;4.332;2023-06-14T12:21:40;8.10;;;5.45;;
25581;SDS011;13462;50.764;4.332;2023-06-14T12:24:07;10.85;;;6.13;;
25581;SDS011;13462;50.764;4.332;2023-06-14T12:26:33;6.00;;;5.45;;
25581;SDS011;13462;50.764;4.332;2023-06-14T12:29:04;6.78;;;5.80;;
25581;SDS011;13462;50.764;4.332;2023-06-14T12:31:30;8.05;;;5.63;;
25581;SDS011;13462;50.764;4.332;2023-06-14T12:33:56;9.05;;;6.13;;
25581;SDS011;13462;50.764;4.332;2023-06-14T12:36:21;8.00;;;5.78;;
25581;SDS011;13462;50.764;4.332;2023-06-14T12:38:47;9.10;;;5.97;;
25581;SDS011;13462;50.764;4.332;2023-06-14T12:41:13;8.70;;;5.60;;
25581;SDS011;13462;50.764;4.332;2023-06-14T12:43:39;11.27;;;6.15;;
25581;SDS011;13462;50.764;4.332;2023-06-14T12:46:05;11.38;;;6.00;;
25581;SDS011;13462;50.764;4.332;2023-06-14T12:48:31;5.57;;;5.07;;
25581;SDS011;13462;50.764;4.332;2023-06-14T12:50:57;9.80;;;6.00;;
25581;SDS011;13462;50.764;4.332;2023-06-14T12:53:23;8.13;;;5.88;;
25581;SDS011;13462;50.764;4.332;2023-06-14T12:55:49;6.72;;;5.35;;
25581;SDS011;13462;50.764;4.332;2023-06-14T12:58:14;7.28;;;5.70;;
25581;SDS011;13462;50.764;4.332;2023-06-14T13:00:42;11.85;;;5.90;;
25581;SDS011;13462;50.764;4.332;2023-06-14T13:03:08;6.20;;;5.60;;
25581;SDS011;13462;50.764;4.332;2023-06-14T13:05:34;8.95;;;5.80;;
25581;SDS011;13462;50.764;4.332;2023-06-14T13:08:00;8.57;;;5.35;;
25581;SDS011;13462;50.764;4.332;2023-06-14T13:10:26;8.23;;;5.40;;
25581;SDS011;13462;50.764;4.332;2023-06-14T13:12:52;9.88;;;5.65;;
25581;SDS011;13462;50.764;4.332;2023-06-14T13:15:18;5.75;;;5.20;;
25581;SDS011;13462;50.764;4.332;2023-06-14T13:17:43;9.55;;;5.15;;
25581;SDS011;13462;50.764;4.332;2023-06-14T13:20:13;7.75;;;5.57;;
25581;SDS011;13462;50.764;4.332;2023-06-14T13:22:39;10.77;;;6.13;;
25581;SDS011;13462;50.764;4.332;2023-06-14T13:25:05;5.43;;;4.93;;
25581;SDS011;13462;50.764;4.332;2023-06-14T13:27:31;8.32;;;5.22;;
25581;SDS011;13462;50.764;4.332;2023-06-14T13:29:57;9.90;;;5.50;;
25581;SDS011;13462;50.764;4.332;2023-06-14T13:32:22;8.38;;;5.60;;
25581;SDS011;13462;50.764;4.332;2023-06-14T13:34:48;8.80;;;5.57;;
25581;SDS011;13462;50.764;4.332;2023-06-14T13:37:14;6.20;;;5.50;;
25581;SDS011;13462;50.764;4.332;2023-06-14T13:39:40;9.25;;;5.05;;
25581;SDS011;13462;50.764;4.332;2023-06-14T13:42:05;7.18;;;5.15;;
25581;SDS011;13462;50.764;4.332;2023-06-14T13:44:31;10.30;;;5.45;;
25581;SDS011;13462;50.764;4.332;2023-06-14T13:46:57;16.55;;;5.68;;
25581;SDS011;13462;50.764;4.332;2023-06-14T13:49:22;6.47;;;5.38;;
25581;SDS011;13462;50.764;4.332;2023-06-14T13:51:48;10.35;;;5.20;;
25581;SDS011;13462;50.764;4.332;2023-06-14T13:54:13;6.68;;;5.05;;
25581;SDS011;13462;50.764;4.332;2023-06-14T13:56:40;8.00;;;5.43;;
25581;SDS011;13462;50.764;4.332;2023-06-14T13:59:06;8.20;;;4.80;;
25581;SDS011;13462;50.764;4.332;2023-06-14T14:01:31;6.22;;;4.97;;
25581;SDS011;13462;50.764;4.332;2023-06-14T14:03:57;7.53;;;4.40;;
25581;SDS011;13462;50.764;4.332;2023-06-14T14:06:23;7.43;;;4.38;;
25581;SDS011;13462;50.764;4.332;2023-06-14T14:08:49;9.70;;;4.68;;
25581;SDS011;13462;50.764;4.332;2023-06-14T14:11:15;8.88;;;4.40;;
25581;SDS011;13462;50.764;4.332;2023-06-14T14:13:41;4.88;;;4.00;;
25581;SDS011;13462;50.764;4.332;2023-06-14T14:16:07;9.40;;;3.88;;
25581;SDS011;13462;50.764;4.332;2023-06-14T14:18:33;9.90;;;4.22;;
25581;SDS011;13462;50.764;4.332;2023-06-14T14:20:58;7.25;;;4.70;;
25581;SDS011;13462;50.764;4.332;2023-06-14T14:23:25;5.20;;;3.97;;
25581;SDS011;13462;50.764;4.332;2023-06-14T14:25:51;6.07;;;4.65;;
25581;SDS011;13462;50.764;4.332;2023-06-14T14:28:16;6.82;;;3.90;;
25581;SDS011;13462;50.764;4.332;2023-06-14T14:30:44;6.18;;;4.00;;
25581;SDS011;13462;50.764;4.332;2023-06-14T14:33:11;5.72;;;3.63;;
25581;SDS011;13462;50.764;4.332;2023-06-14T14:35:40;4.30;;;3.90;;
25581;SDS011;13462;50.764;4.332;2023-06-14T14:38:12;6.80;;;3.65;;
25581;SDS011;13462;50.764;4.332;2023-06-14T14:40:40;5.20;;;3.65;;
25581;SDS011;13462;50.764;4.332;2023-06-14T14:43:06;6.93;;;3.53;;
25581;SDS011;13462;50.764;4.332;2023-06-14T14:45:31;7.65;;;3.80;;
25581;SDS011;13462;50.764;4.332;2023-06-14T14:47:57;6.78;;;3.50;;
25581;SDS011;13462;50.764;4.332;2023-06-14T14:50:24;5.88;;;3.25;;
25581;SDS011;13462;50.764;4.332;2023-06-14T14:52:50;5.28;;;3.17;;
25581;SDS011;13462;50.764;4.332;2023-06-14T14:55:16;3.10;;;2.80;;
25581;SDS011;13462;50.764;4.332;2023-06-14T14:57:41;4.50;;;3.30;;
25581;SDS011;13462;50.764;4.332;2023-06-14T15:00:08;5.05;;;3.00;;